Time;durP1;ratioP1;P1;durP2;ratioP2;P2;SDS_P1;SDS_P2;PMS_P1;PMS_P2;Temp;Humidity;BMP_temperature;BMP_pressure;BME280_temperature;BME280_humidity;BME280_pressure;Samples;Min_cycle;Max_cycle;Signal;HPM_P1;HPM_P2
2020/12/28 00:02:08;;;;;;;3.07;2.77;;;3.20;99.90;;;;;;4826878;29;20254;-91
2020/12/28 00:04:34;;;;;;;4.37;3.07;;;3.20;99.90;;;;;;4842528;29;20271;-91
2020/12/28 00:07:00;;;;;;;3.23;3.00;;;3.10;99.90;;;;;;4841647;29;20308;-90
2020/12/28 00:09:27;;;;;;;5.20;3.03;;;3.10;99.90;;;;;;4845218;29;20214;-91
2020/12/28 00:11:56;;;;;;;2.77;2.23;;;3.00;99.90;;;;;;4859438;29;20220;-92
2020/12/28 00:14:23;;;;;;;2.33;2.03;;;3.10;99.90;;;;;;4826467;29;20224;-91
2020/12/28 00:16:49;;;;;;;6.63;3.67;;;3.10;99.90;;;;;;4843099;29;20228;-91
2020/12/28 00:19:16;;;;;;;3.17;2.97;;;3.10;99.90;;;;;;4842307;29;21094;-92
2020/12/28 00:21:42;;;;;;;7.57;3.40;;;3.00;99.90;;;;;;4855612;29;21170;-92
2020/12/28 00:24:09;;;;;;;1.93;1.40;;;3.00;99.90;;;;;;4859738;29;20199;-91
2020/12/28 00:26:42;;;;;;;4.00;2.90;;;3.00;99.90;;;;;;4840889;29;20602;-92
2020/12/28 00:29:09;;;;;;;1.63;1.53;;;2.90;99.90;;;;;;4843448;29;20216;-92
2020/12/28 00:31:35;;;;;;;2.47;2.10;;;2.90;99.90;;;;;;4840468;29;21225;-92
2020/12/28 00:34:01;;;;;;;1.80;1.70;;;2.90;99.90;;;;;;4841407;29;20231;-92
2020/12/28 00:36:27;;;;;;;4.27;3.60;;;2.90;99.90;;;;;;4844626;29;20240;-92
2020/12/28 00:38:54;;;;;;;2.70;1.77;;;2.90;99.90;;;;;;4842138;29;20220;-92
2020/12/28 00:41:19;;;;;;;2.53;2.33;;;2.90;99.90;;;;;;4840420;29;20318;-92
2020/12/28 00:43:46;;;;;;;3.27;2.23;;;2.80;99.90;;;;;;4827013;29;21287;-91
2020/12/28 00:46:13;;;;;;;2.00;1.90;;;2.80;99.90;;;;;;4839015;29;20231;-90
2020/12/28 00:48:39;;;;;;;2.23;1.57;;;2.80;99.90;;;;;;4858240;29;20205;-91
2020/12/28 00:51:05;;;;;;;2.93;1.60;;;2.50;99.90;;;;;;4840567;29;20909;-89
2020/12/28 00:53:31;;;;;;;2.40;1.93;;;2.20;99.90;;;;;;4834451;29;20232;-92
2020/12/28 00:55:58;;;;;;;2.30;2.17;;;2.20;99.90;;;;;;4830900;29;20228;-92
2020/12/28 00:58:25;;;;;;;2.00;1.80;;;2.10;99.90;;;;;;4839522;29;20224;-92
2020/12/28 01:00:51;;;;;;;2.70;2.50;;;2.00;99.90;;;;;;4856172;29;20296;-92
2020/12/28 01:03:17;;;;;;;2.27;2.07;;;1.90;99.90;;;;;;4843160;29;20184;-92
2020/12/28 01:05:43;;;;;;;1.73;1.63;;;1.90;99.90;;;;;;4840695;29;20250;-92
2020/12/28 01:08:09;;;;;;;3.30;1.80;;;1.80;99.90;;;;;;4842655;29;20905;-92
2020/12/28 01:10:36;;;;;;;1.43;0.73;;;1.80;99.90;;;;;;4824079;29;20316;-92
2020/12/28 01:13:05;;;;;;;4.33;3.07;;;1.80;99.90;;;;;;4840694;29;20240;-92
2020/12/28 01:15:31;;;;;;;4.43;2.17;;;1.90;99.90;;;;;;4844149;29;20232;-92
2020/12/28 01:17:57;;;;;;;3.10;2.47;;;2.00;99.90;;;;;;4842085;29;20224;-92
2020/12/28 01:20:23;;;;;;;2.00;1.90;;;2.00;99.90;;;;;;4841623;29;20748;-92
2020/12/28 01:22:48;;;;;;;3.20;2.93;;;2.00;99.90;;;;;;4855419;29;20842;-93
2020/12/28 01:25:15;;;;;;;2.83;1.53;;;2.20;99.90;;;;;;4839029;29;20233;-92
2020/12/28 01:27:41;;;;;;;2.07;1.97;;;2.20;99.90;;;;;;4841298;29;20200;-92
2020/12/28 01:30:07;;;;;;;3.70;2.17;;;2.20;99.90;;;;;;4843537;29;20240;-92
2020/12/28 01:32:35;;;;;;;2.00;1.47;;;2.20;99.90;;;;;;4841831;29;20231;-92
2020/12/28 01:35:01;;;;;;;2.03;1.93;;;2.20;99.90;;;;;;4841310;29;20713;-92
2020/12/28 01:37:27;;;;;;;1.70;1.60;;;2.10;99.90;;;;;;4841752;29;20238;-92
2020/12/28 01:39:53;;;;;;;2.93;2.73;;;2.10;99.90;;;;;;4856389;29;20239;-92
2020/12/28 01:42:19;;;;;;;37.57;3.10;;;2.20;99.90;;;;;;4843945;29;20200;-93
2020/12/28 01:44:45;;;;;;;11.20;3.77;;;2.10;99.90;;;;;;4839367;29;20224;-92
2020/12/28 01:47:11;;;;;;;2.90;1.43;;;1.50;99.90;;;;;;4853951;29;20228;-92
2020/12/28 01:49:37;;;;;;;1.20;0.97;;;1.90;99.90;;;;;;4825620;29;20319;-92
2020/12/28 01:52:04;;;;;;;0.73;0.73;;;2.20;99.90;;;;;;4839662;29;20692;-92
2020/12/28 01:54:31;;;;;;;5.47;3.23;;;2.40;99.90;;;;;;4843367;29;20230;-92
2020/12/28 01:57:00;;;;;;;2.93;2.57;;;2.70;99.90;;;;;;4840534;29;20840;-92
2020/12/28 01:59:26;;;;;;;2.90;2.30;;;2.80;99.90;;;;;;4840962;29;20287;-92
2020/12/28 02:01:53;;;;;;;1.77;1.67;;;2.90;99.90;;;;;;4827458;29;20708;-93
2020/12/28 02:04:19;;;;;;;2.50;2.03;;;2.90;99.90;;;;;;4844027;29;20225;-91
2020/12/28 02:06:46;;;;;;;2.60;2.40;;;2.80;99.90;;;;;;4830513;29;20211;-92
2020/12/28 02:09:13;;;;;;;3.80;1.73;;;2.80;99.90;;;;;;4845560;29;20184;-92
2020/12/28 02:11:39;;;;;;;2.37;2.17;;;2.90;99.90;;;;;;4861084;29;20395;-91
2020/12/28 02:14:05;;;;;;;3.40;2.67;;;2.90;99.90;;;;;;4842043;29;20687;-92
2020/12/28 02:16:31;;;;;;;3.00;2.80;;;2.80;99.90;;;;;;4827616;29;20268;-92
2020/12/28 02:18:57;;;;;;;2.20;2.10;;;2.90;99.90;;;;;;4828944;29;20238;-92
2020/12/28 02:21:23;;;;;;;2.70;2.47;;;2.90;99.90;;;;;;4861190;29;20228;-92
2020/12/28 02:23:48;;;;;;;4.00;3.37;;;3.00;99.90;;;;;;4827339;29;20231;-92
2020/12/28 02:26:14;;;;;;;6.30;4.23;;;3.10;99.90;;;;;;4860762;29;20253;-92
2020/12/28 02:28:40;;;;;;;11.27;5.53;;;3.20;99.90;;;;;;4828846;29;20303;-92
2020/12/28 02:31:06;;;;;;;2.43;2.20;;;3.40;99.90;;;;;;4827896;29;20586;-92
2020/12/28 02:33:32;;;;;;;5.23;4.73;;;3.50;99.90;;;;;;4852290;29;20557;-93
2020/12/28 02:35:57;;;;;;;6.43;5.93;;;3.50;99.90;;;;;;4812983;29;20940;-92
2020/12/28 02:38:23;;;;;;;7.73;3.80;;;3.60;99.90;;;;;;4844997;29;20558;-93
2020/12/28 02:40:49;;;;;;;4.90;3.83;;;3.70;99.90;;;;;;4844669;29;20240;-93
2020/12/28 02:43:15;;;;;;;4.20;3.57;;;3.70;99.90;;;;;;4846217;29;20225;-92
2020/12/28 02:45:41;;;;;;;6.40;4.20;;;3.70;99.90;;;;;;4827875;29;20245;-93
2020/12/28 02:48:06;;;;;;;7.83;5.47;;;3.60;99.90;;;;;;4847481;29;20190;-93
2020/12/28 02:50:32;;;;;;;4.70;4.27;;;3.60;99.90;;;;;;4829492;29;20730;-92
2020/12/28 02:52:58;;;;;;;5.73;5.23;;;3.60;99.90;;;;;;4841563;29;20284;-93
2020/12/28 02:55:24;;;;;;;7.47;5.47;;;3.70;99.90;;;;;;4841242;29;20260;-93
2020/12/28 02:57:50;;;;;;;8.80;5.63;;;3.80;99.90;;;;;;4839116;29;20196;-92
2020/12/28 03:00:15;;;;;;;7.83;5.50;;;3.80;99.90;;;;;;4827490;29;20193;-93
2020/12/28 03:02:42;;;;;;;5.40;4.40;;;3.80;99.90;;;;;;4838321;29;20236;-93
2020/12/28 03:05:07;;;;;;;5.37;4.67;;;3.80;99.90;;;;;;4836610;29;20283;-92
2020/12/28 03:07:33;;;;;;;7.77;4.40;;;3.90;99.90;;;;;;4853683;29;20643;-93
2020/12/28 03:10:03;;;;;;;7.87;6.03;;;3.90;99.90;;;;;;4825457;29;20765;-93
2020/12/28 03:12:29;;;;;;;7.07;6.07;;;3.90;99.90;;;;;;4843934;29;20720;-92
2020/12/28 03:14:54;;;;;;;10.73;7.33;;;4.00;99.90;;;;;;4823396;29;20691;-93
2020/12/28 03:17:20;;;;;;;10.50;5.67;;;4.00;99.90;;;;;;4823926;29;20240;-93
2020/12/28 03:19:46;;;;;;;10.73;8.00;;;4.00;99.90;;;;;;4837052;29;21089;-93
2020/12/28 03:22:12;;;;;;;8.30;6.93;;;4.10;99.90;;;;;;4823237;29;20237;-93
2020/12/28 03:24:37;;;;;;;7.63;5.97;;;4.10;99.90;;;;;;4839895;29;20204;-92
2020/12/28 03:27:03;;;;;;;11.13;6.63;;;4.10;99.90;;;;;;4843463;29;20603;-91
2020/12/28 03:29:33;;;;;;;7.90;5.73;;;4.20;99.90;;;;;;4841097;29;20921;-92
2020/12/28 03:32:01;;;;;;;8.03;6.97;;;4.20;99.90;;;;;;4840616;29;21342;-91
2020/12/28 03:34:27;;;;;;;7.53;5.70;;;4.20;99.90;;;;;;4852980;29;20224;-91
2020/12/28 03:36:53;;;;;;;8.47;5.97;;;4.20;99.90;;;;;;4854981;29;20227;-92
2020/12/28 03:39:19;;;;;;;6.00;5.07;;;4.20;99.90;;;;;;4841539;29;20401;-92
2020/12/28 03:41:45;;;;;;;9.93;6.90;;;4.20;99.90;;;;;;4840221;29;20232;-91
2020/12/28 03:44:11;;;;;;;6.07;5.23;;;4.20;99.90;;;;;;4843319;29;20979;-92
2020/12/28 03:46:36;;;;;;;14.53;6.97;;;4.20;99.90;;;;;;4838867;29;20235;-91
2020/12/28 03:49:03;;;;;;;6.23;4.60;;;4.20;99.90;;;;;;4842348;29;20906;-92
2020/12/28 03:51:28;;;;;;;6.10;5.50;;;4.20;99.90;;;;;;4843087;29;20196;-92
2020/12/28 03:53:54;;;;;;;8.57;5.63;;;4.20;99.90;;;;;;4857080;29;20224;-92
2020/12/28 03:56:21;;;;;;;8.90;6.83;;;4.20;99.90;;;;;;4840822;29;20259;-93
2020/12/28 03:58:47;;;;;;;7.30;6.67;;;4.20;99.90;;;;;;4826652;29;20655;-92
2020/12/28 04:01:13;;;;;;;5.20;3.73;;;4.20;99.90;;;;;;4841737;29;20220;-91
2020/12/28 04:03:39;;;;;;;5.13;3.80;;;4.20;99.90;;;;;;4841153;29;20219;-92
2020/12/28 04:06:05;;;;;;;9.47;6.07;;;4.20;99.90;;;;;;4829656;29;20188;-92
2020/12/28 04:08:31;;;;;;;9.47;6.07;;;4.20;99.90;;;;;;4842970;29;20849;-92
2020/12/28 04:10:57;;;;;;;11.33;7.70;;;4.20;99.90;;;;;;4820800;29;20216;-92
2020/12/28 04:13:23;;;;;;;8.13;6.57;;;4.20;99.90;;;;;;4825009;29;20333;-93
2020/12/28 04:15:50;;;;;;;6.17;5.30;;;4.30;99.90;;;;;;4836008;29;20219;-92
2020/12/28 04:18:16;;;;;;;7.17;5.17;;;4.30;99.90;;;;;;4829824;29;20220;-92
2020/12/28 04:20:42;;;;;;;7.27;4.40;;;4.20;99.90;;;;;;4842540;29;20223;-93
2020/12/28 04:23:08;;;;;;;9.23;6.07;;;4.20;99.90;;;;;;4840505;29;20702;-91
2020/12/28 04:25:34;;;;;;;10.00;6.17;;;4.20;99.90;;;;;;4794116;29;20261;-93
2020/12/28 04:27:59;;;;;;;6.90;4.70;;;4.20;99.90;;;;;;4808977;29;20237;-92
2020/12/28 04:30:26;;;;;;;8.83;5.57;;;4.10;99.90;;;;;;4837320;29;20315;-92
2020/12/28 04:32:51;;;;;;;8.73;6.00;;;4.20;99.90;;;;;;4825135;29;20233;-92
2020/12/28 04:35:17;;;;;;;11.13;6.50;;;4.20;99.90;;;;;;4823900;29;20266;-92
2020/12/28 04:37:43;;;;;;;5.60;5.17;;;4.20;99.90;;;;;;4808514;29;20220;-92
2020/12/28 04:40:09;;;;;;;12.60;6.53;;;4.20;99.90;;;;;;4823203;29;20700;-92
2020/12/28 04:42:40;;;;;;;11.00;7.20;;;4.20;99.90;;;;;;4826317;29;20541;-92
2020/12/28 04:45:07;;;;;;;8.87;5.17;;;4.20;99.90;;;;;;4822382;29;20268;-93
2020/12/28 04:47:33;;;;;;;7.30;5.43;;;4.20;99.90;;;;;;4808678;29;20244;-93
2020/12/28 04:49:59;;;;;;;6.83;5.97;;;4.20;99.90;;;;;;4822094;29;20222;-92
2020/12/28 04:52:26;;;;;;;6.17;5.57;;;4.20;99.90;;;;;;4839741;29;20233;-92
2020/12/28 04:54:52;;;;;;;6.20;5.70;;;4.20;99.90;;;;;;4822779;29;20224;-93
2020/12/28 04:57:18;;;;;;;7.63;6.27;;;4.20;99.90;;;;;;4841094;29;20197;-92
2020/12/28 04:59:44;;;;;;;6.77;4.27;;;4.20;99.90;;;;;;4806765;29;20282;-93
2020/12/28 05:02:10;;;;;;;9.93;5.90;;;4.10;99.90;;;;;;4802759;29;20266;-93
2020/12/28 05:04:36;;;;;;;7.87;5.23;;;4.10;99.90;;;;;;4837521;29;20311;-93
2020/12/28 05:07:03;;;;;;;2.80;2.60;;;4.10;99.90;;;;;;4839201;29;20221;-92
2020/12/28 05:09:30;;;;;;;6.83;5.13;;;4.10;99.90;;;;;;4825143;29;20196;-92
2020/12/28 05:11:58;;;;;;;10.67;6.13;;;4.10;99.90;;;;;;4825134;29;20253;-92
2020/12/28 05:14:24;;;;;;;13.67;6.07;;;4.10;99.90;;;;;;4839374;29;20228;-92
2020/12/28 05:17:00;;;;;;;16.77;7.00;;;4.10;99.90;;;;;;4822641;29;20232;-92
2020/12/28 05:19:27;;;;;;;6.70;5.13;;;4.10;99.90;;;;;;4839114;29;20326;-93
2020/12/28 05:21:58;;;;;;;7.47;6.80;;;4.10;99.90;;;;;;4831177;29;21950;-92
2020/12/28 05:24:24;;;;;;;7.37;5.50;;;4.20;99.90;;;;;;4843372;29;20196;-92
2020/12/28 05:26:50;;;;;;;7.50;5.13;;;4.20;99.90;;;;;;4843013;29;20231;-92
2020/12/28 05:29:20;;;;;;;6.13;5.20;;;4.20;99.90;;;;;;4857981;29;20521;-93
2020/12/28 05:31:50;;;;;;;10.17;5.07;;;4.20;99.90;;;;;;4831872;29;20334;-92
2020/12/28 05:34:19;;;;;;;5.67;3.17;;;4.20;99.90;;;;;;4825910;29;20320;-92
2020/12/28 05:36:56;;;;;;;9.30;5.90;;;4.20;99.90;;;;;;4859306;29;20228;-92
2020/12/28 05:39:24;;;;;;;7.17;5.67;;;4.30;99.90;;;;;;4860438;29;20199;-93
2020/12/28 05:42:10;;;;;;;7.87;5.43;;;4.30;99.90;;;;;;4839030;29;20216;-93
2020/12/28 05:44:40;;;;;;;6.00;5.27;;;4.30;99.90;;;;;;4844389;29;21262;-92
2020/12/28 05:47:16;;;;;;;7.43;5.33;;;4.30;99.90;;;;;;4861461;29;20236;-92
2020/12/28 05:49:44;;;;;;;3.30;3.10;;;4.30;99.90;;;;;;4837211;29;20253;-92
2020/12/28 05:52:12;;;;;;;5.50;5.07;;;4.30;99.90;;;;;;4851651;29;20239;-93
2020/12/28 05:54:38;;;;;;;7.47;3.23;;;4.30;99.90;;;;;;4847817;29;20201;-93
2020/12/28 05:57:05;;;;;;;6.43;5.80;;;4.30;99.90;;;;;;4853626;29;20184;-92
2020/12/28 05:59:32;;;;;;;4.30;3.73;;;4.20;99.90;;;;;;4843428;29;20220;-93
2020/12/28 06:01:59;;;;;;;6.27;4.53;;;4.30;99.90;;;;;;4842283;29;20320;-93
2020/12/28 06:04:25;;;;;;;12.20;4.47;;;4.20;99.90;;;;;;4843377;29;20249;-93
2020/12/28 06:07:00;;;;;;;4.27;3.97;;;4.30;99.90;;;;;;4843934;29;20201;-93
2020/12/28 06:09:27;;;;;;;9.23;5.50;;;4.30;99.90;;;;;;4844927;29;20259;-93
2020/12/28 06:12:10;;;;;;;8.27;5.03;;;4.20;99.90;;;;;;4844712;29;20232;-93
2020/12/28 06:14:36;;;;;;;7.17;4.83;;;4.30;99.90;;;;;;4845030;29;20228;-93
2020/12/28 06:17:12;;;;;;;5.83;4.27;;;4.30;99.90;;;;;;4851117;29;20277;-93
2020/12/28 06:19:40;;;;;;;10.50;6.43;;;4.30;99.90;;;;;;4844980;29;20270;-93
2020/12/28 06:22:19;;;;;;;6.53;5.37;;;4.30;99.90;;;;;;4845750;29;21034;-93
2020/12/28 06:25:16;;;;;;;8.03;5.07;;;4.30;99.90;;;;;;4845069;29;20294;-94
2020/12/28 06:27:43;;;;;;;7.53;4.97;;;4.30;99.90;;;;;;4840845;29;21287;-92
2020/12/28 06:30:20;;;;;;;5.33;4.83;;;4.40;99.90;;;;;;4859866;29;20205;-91
2020/12/28 06:33:00;;;;;;;5.20;4.13;;;4.40;99.90;;;;;;4844891;29;20219;-92
2020/12/28 06:35:28;;;;;;;10.83;4.73;;;4.30;99.90;;;;;;4858298;29;20277;-92
2020/12/28 06:37:54;;;;;;;6.00;5.27;;;4.30;99.90;;;;;;4830429;29;20276;-93
2020/12/28 06:40:32;;;;;;;10.83;5.80;;;4.30;99.90;;;;;;4829629;29;20238;-92
2020/12/28 06:43:17;;;;;;;8.63;4.10;;;4.30;99.90;;;;;;4843843;29;21331;-93
2020/12/28 06:45:45;;;;;;;6.57;5.73;;;4.20;99.90;;;;;;4859185;29;20283;-94
2020/12/28 06:48:25;;;;;;;5.27;3.63;;;4.20;99.90;;;;;;4861041;29;20189;-93
2020/12/28 06:50:53;;;;;;;4.80;3.47;;;4.20;99.90;;;;;;4843058;29;20228;-93
2020/12/28 06:53:23;;;;;;;6.63;5.10;;;4.20;99.90;;;;;;4829703;29;20220;-88
2020/12/28 06:55:49;;;;;;;6.00;5.47;;;4.20;99.90;;;;;;4825059;29;20236;-89
2020/12/28 06:58:15;;;;;;;7.30;4.43;;;4.20;99.90;;;;;;4842431;29;20239;-89
2020/12/28 07:00:41;;;;;;;3.77;3.40;;;4.20;99.90;;;;;;4843360;29;20197;-89
2020/12/28 07:03:17;;;;;;;13.20;7.73;;;4.20;99.90;;;;;;4814260;29;20203;-89
2020/12/28 07:05:44;;;;;;;15.07;6.87;;;4.20;99.90;;;;;;4843239;29;20261;-89
2020/12/28 07:08:10;;;;;;;10.43;6.70;;;4.30;99.90;;;;;;4842415;29;20227;-90
2020/12/28 07:10:36;;;;;;;10.00;7.03;;;4.30;99.90;;;;;;4844016;29;20277;-88
2020/12/28 07:13:03;;;;;;;10.23;6.30;;;4.30;99.90;;;;;;4826873;29;20231;-89
2020/12/28 07:15:29;;;;;;;7.57;5.87;;;4.30;99.90;;;;;;4831590;29;20299;-88
2020/12/28 07:17:55;;;;;;;5.17;3.93;;;4.30;99.90;;;;;;4842308;29;21015;-88
2020/12/28 07:20:20;;;;;;;9.20;4.87;;;4.30;99.90;;;;;;4826242;29;20281;-87
2020/12/28 07:22:46;;;;;;;13.07;7.87;;;4.30;99.90;;;;;;4842952;29;20240;-89
2020/12/28 07:25:13;;;;;;;8.43;5.83;;;4.30;99.90;;;;;;4811642;29;20240;-90
2020/12/28 07:27:40;;;;;;;9.73;6.77;;;4.30;99.90;;;;;;4829026;29;20200;-88
2020/12/28 07:30:10;;;;;;;11.37;6.30;;;4.30;99.90;;;;;;4828954;29;20332;-89
2020/12/28 07:32:37;;;;;;;13.90;8.33;;;4.40;99.90;;;;;;4828295;29;20702;-88
2020/12/28 07:35:03;;;;;;;10.00;5.03;;;4.40;99.90;;;;;;4842574;29;20239;-90
2020/12/28 07:37:30;;;;;;;8.77;5.60;;;4.40;99.90;;;;;;4827178;29;20236;-87
2020/12/28 07:39:56;;;;;;;10.73;5.90;;;4.40;99.90;;;;;;4843271;29;20762;-88
2020/12/28 07:42:27;;;;;;;8.80;7.53;;;4.40;99.90;;;;;;4843299;29;20193;-91
2020/12/28 07:44:58;;;;;;;10.90;6.63;;;4.40;99.90;;;;;;4844114;29;20236;-90
2020/12/28 07:47:54;;;;;;;15.23;5.90;;;4.40;99.90;;;;;;4860063;29;20276;-88
2020/12/28 07:50:21;;;;;;;5.83;5.17;;;4.40;99.90;;;;;;4844672;29;20361;-89
2020/12/28 07:53:04;;;;;;;14.27;7.40;;;4.40;99.90;;;;;;4842050;29;20676;-89
2020/12/28 07:55:39;;;;;;;7.13;6.50;;;4.30;99.90;;;;;;4840200;29;20240;-88
2020/12/28 07:58:28;;;;;;;5.70;4.43;;;4.30;99.90;;;;;;4856933;29;20234;-89
2020/12/28 08:00:57;;;;;;;13.37;6.70;;;4.30;99.90;;;;;;4847465;29;20673;-89
2020/12/28 08:03:38;;;;;;;10.53;6.30;;;4.30;99.90;;;;;;4842358;29;20276;-89
2020/12/28 08:06:09;;;;;;;12.17;5.67;;;4.30;99.90;;;;;;4842606;29;20216;-88
2020/12/28 08:08:35;;;;;;;9.47;5.07;;;4.30;99.90;;;;;;4844869;29;20263;-88
2020/12/28 08:11:04;;;;;;;7.37;5.13;;;4.30;99.90;;;;;;4840527;29;20241;-88
2020/12/28 08:13:35;;;;;;;7.17;6.53;;;4.20;99.90;;;;;;4841873;29;20232;-92
2020/12/28 08:16:11;;;;;;;5.53;5.00;;;4.10;99.90;;;;;;4844597;29;20271;-90
2020/12/28 08:18:50;;;;;;;7.20;6.47;;;4.10;99.90;;;;;;4841374;29;20275;-90
2020/12/28 08:21:17;;;;;;;5.80;5.27;;;4.10;99.90;;;;;;4860630;29;20223;-91
2020/12/28 08:23:56;;;;;;;9.50;5.07;;;4.00;99.90;;;;;;4858652;29;20335;-93
2020/12/28 08:26:23;;;;;;;5.13;4.63;;;4.10;99.90;;;;;;4842984;29;20226;-91
2020/12/28 08:28:54;;;;;;;7.10;5.77;;;4.00;99.90;;;;;;4841566;29;20820;-92
2020/12/28 08:31:27;;;;;;;5.27;4.43;;;4.00;99.90;;;;;;4838627;29;20307;-93
2020/12/28 08:34:08;;;;;;;6.53;4.87;;;4.00;99.90;;;;;;4837394;29;20224;-92
2020/12/28 08:36:37;;;;;;;9.07;3.40;;;4.00;99.90;;;;;;4839104;29;20226;-91
2020/12/28 08:39:20;;;;;;;8.57;4.50;;;4.00;99.90;;;;;;4840693;29;20216;-91
2020/12/28 08:42:00;;;;;;;6.83;3.80;;;4.00;99.90;;;;;;4842317;29;20225;-92
2020/12/28 08:44:28;;;;;;;5.13;3.83;;;3.90;99.90;;;;;;4852855;29;20254;-91
2020/12/28 08:46:55;;;;;;;5.30;4.90;;;3.90;99.90;;;;;;4851559;29;20232;-93
2020/12/28 08:49:32;;;;;;;9.03;3.80;;;3.90;99.90;;;;;;4823431;29;20344;-91
2020/12/28 08:52:08;;;;;;;5.90;4.77;;;3.90;99.90;;;;;;4854497;29;20228;-91
2020/12/28 08:54:34;;;;;;;11.07;5.43;;;3.90;99.90;;;;;;4841083;29;20198;-91
2020/12/28 08:57:00;;;;;;;11.33;7.67;;;3.90;99.90;;;;;;4825036;29;20237;-87
2020/12/28 08:59:26;;;;;;;7.60;4.13;;;4.00;99.90;;;;;;4823660;29;20220;-89
2020/12/28 09:01:53;;;;;;;8.53;4.60;;;4.00;99.90;;;;;;4825208;29;20234;-87
2020/12/28 09:04:20;;;;;;;6.33;4.63;;;4.00;99.90;;;;;;4825422;29;20259;-87
2020/12/28 09:06:45;;;;;;;4.23;3.83;;;4.00;99.90;;;;;;4838277;29;20209;-90
2020/12/28 09:09:13;;;;;;;7.63;6.53;;;3.90;99.90;;;;;;4844072;29;20795;-87
2020/12/28 09:11:40;;;;;;;3.97;3.63;;;3.90;99.90;;;;;;4841421;29;20339;-88
2020/12/28 09:14:05;;;;;;;3.93;3.30;;;3.90;99.90;;;;;;4826162;29;20235;-89
2020/12/28 09:16:31;;;;;;;4.43;3.00;;;4.00;99.90;;;;;;4840462;29;20245;-86
2020/12/28 09:18:57;;;;;;;16.80;4.90;;;4.00;99.90;;;;;;4845919;29;20693;-87
2020/12/28 09:21:23;;;;;;;15.37;5.50;;;4.10;99.90;;;;;;4861628;29;20791;-87
2020/12/28 09:23:49;;;;;;;7.23;5.07;;;4.00;99.90;;;;;;4846687;29;20235;-87
2020/12/28 09:26:14;;;;;;;8.37;6.43;;;4.00;99.90;;;;;;4845683;29;20230;-88
2020/12/28 09:28:40;;;;;;;8.83;6.50;;;4.00;99.90;;;;;;4844458;29;20259;-89
2020/12/28 09:31:06;;;;;;;7.20;5.67;;;3.90;99.90;;;;;;4833500;29;20224;-88
2020/12/28 09:33:32;;;;;;;7.57;5.27;;;3.90;99.90;;;;;;4848811;29;20204;-89
2020/12/28 09:35:58;;;;;;;7.90;4.93;;;3.90;99.90;;;;;;4831193;29;20279;-87
2020/12/28 09:38:24;;;;;;;6.17;4.80;;;3.90;99.90;;;;;;4832680;29;20224;-90
2020/12/28 09:40:50;;;;;;;5.37;2.33;;;3.90;99.90;;;;;;4831492;29;20235;-88
2020/12/28 09:43:15;;;;;;;10.60;5.30;;;3.90;99.90;;;;;;4831207;29;20304;-89
2020/12/28 09:45:41;;;;;;;3.57;3.33;;;3.90;99.90;;;;;;4830702;29;20237;-86
2020/12/28 09:48:07;;;;;;;7.70;4.83;;;3.80;99.90;;;;;;4831885;29;20574;-88
2020/12/28 09:50:33;;;;;;;7.53;3.97;;;3.90;99.90;;;;;;4846310;29;20223;-87
2020/12/28 09:52:59;;;;;;;5.93;5.37;;;3.90;99.90;;;;;;4843287;29;20221;-88
2020/12/28 09:55:25;;;;;;;6.10;2.70;;;3.80;99.90;;;;;;4831639;29;20300;-87
2020/12/28 09:57:51;;;;;;;5.30;3.43;;;3.70;99.90;;;;;;4846100;29;20245;-87
2020/12/28 10:00:20;;;;;;;3.57;3.20;;;3.70;99.90;;;;;;4835019;29;20192;-88
2020/12/28 10:02:47;;;;;;;4.33;4.03;;;3.70;99.90;;;;;;4863239;29;20565;-88
2020/12/28 10:05:12;;;;;;;5.77;4.63;;;3.80;99.90;;;;;;4863527;29;20235;-88
2020/12/28 10:07:39;;;;;;;8.20;5.33;;;3.80;99.90;;;;;;4831441;29;20243;-89
2020/12/28 10:10:06;;;;;;;4.93;4.30;;;3.90;99.90;;;;;;4829971;29;20759;-88
2020/12/28 10:12:32;;;;;;;9.43;3.83;;;4.00;99.90;;;;;;4846864;29;20196;-88
2020/12/28 10:14:58;;;;;;;19.57;5.60;;;4.10;99.90;;;;;;4811745;29;20240;-88
2020/12/28 10:17:24;;;;;;;9.33;6.07;;;4.20;99.90;;;;;;4860067;29;20228;-89
2020/12/28 10:19:50;;;;;;;7.17;4.00;;;4.20;99.90;;;;;;4825854;29;20719;-87
2020/12/28 10:22:16;;;;;;;7.20;5.43;;;4.30;99.90;;;;;;4857326;29;21044;-90
2020/12/28 10:24:42;;;;;;;5.93;4.17;;;4.20;99.90;;;;;;4843589;29;20193;-88
2020/12/28 10:27:08;;;;;;;7.57;4.93;;;4.20;99.90;;;;;;4830375;29;20284;-88
2020/12/28 10:29:33;;;;;;;3.40;2.83;;;4.30;99.90;;;;;;4840887;29;20232;-90
2020/12/28 10:31:59;;;;;;;3.37;2.80;;;4.30;99.90;;;;;;4839767;29;20223;-89
2020/12/28 10:34:26;;;;;;;4.40;4.00;;;4.20;99.90;;;;;;4838559;29;20270;-88
2020/12/28 10:36:52;;;;;;;4.27;3.87;;;4.30;99.90;;;;;;4823672;29;20255;-87
2020/12/28 10:39:18;;;;;;;6.60;5.03;;;4.30;99.90;;;;;;4838680;29;20192;-87
2020/12/28 10:41:43;;;;;;;3.03;1.83;;;4.30;99.90;;;;;;4843230;29;20252;-87
2020/12/28 10:44:09;;;;;;;3.53;3.23;;;4.30;99.90;;;;;;4842847;29;20775;-87
2020/12/28 10:46:37;;;;;;;3.87;3.13;;;4.30;99.90;;;;;;4841315;29;21009;-86
2020/12/28 10:49:07;;;;;;;4.47;4.07;;;4.40;99.90;;;;;;4842213;29;21165;-89
2020/12/28 10:51:33;;;;;;;5.13;2.67;;;4.50;99.90;;;;;;4845188;29;20207;-86
2020/12/28 10:53:59;;;;;;;3.67;3.27;;;4.60;99.90;;;;;;4829368;29;20221;-86
2020/12/28 10:56:27;;;;;;;2.67;1.70;;;4.70;99.90;;;;;;4843258;29;20235;-86
2020/12/28 10:58:53;;;;;;;3.43;2.83;;;4.80;99.90;;;;;;4843314;29;20328;-87
2020/12/28 11:01:27;;;;;;;3.80;3.20;;;4.90;99.90;;;;;;4840712;29;20221;-85
2020/12/28 11:03:53;;;;;;;4.00;3.37;;;5.00;99.90;;;;;;4858691;29;20983;-88
2020/12/28 11:06:20;;;;;;;3.10;2.80;;;5.10;99.90;;;;;;4843511;29;20189;-86
2020/12/28 11:08:47;;;;;;;4.93;2.63;;;5.20;99.90;;;;;;4825557;29;20225;-87
2020/12/28 11:11:13;;;;;;;7.37;3.90;;;5.30;99.90;;;;;;4828458;29;20220;-86
2020/12/28 11:13:39;;;;;;;4.53;2.53;;;5.20;99.90;;;;;;4840985;29;20231;-86
2020/12/28 11:16:04;;;;;;;2.83;1.57;;;5.30;99.90;;;;;;4855739;29;20247;-87
2020/12/28 11:18:30;;;;;;;2.07;1.70;;;5.30;99.90;;;;;;4828123;29;20221;-88
2020/12/28 11:20:56;;;;;;;2.23;1.83;;;5.20;99.90;;;;;;4826448;29;20216;-86
2020/12/28 11:23:22;;;;;;;8.60;2.07;;;5.20;99.90;;;;;;4841502;29;21169;-88
2020/12/28 11:25:48;;;;;;;4.53;4.13;;;5.10;99.90;;;;;;4842109;29;20713;-86
2020/12/28 11:28:15;;;;;;;3.67;3.30;;;5.00;99.90;;;;;;4841650;29;20224;-88
2020/12/28 11:30:40;;;;;;;3.27;2.70;;;5.00;99.90;;;;;;4832627;29;20231;-88
2020/12/28 11:33:06;;;;;;;6.63;3.57;;;5.00;99.90;;;;;;4828090;29;20659;-87
2020/12/28 11:35:32;;;;;;;3.27;1.93;;;5.00;99.90;;;;;;4846552;29;20237;-87
2020/12/28 11:37:58;;;;;;;7.10;3.33;;;5.10;99.90;;;;;;4857716;29;20228;-88
2020/12/28 11:40:24;;;;;;;6.03;3.67;;;5.00;99.90;;;;;;4828001;29;20220;-87
2020/12/28 11:42:50;;;;;;;3.00;2.80;;;5.00;99.90;;;;;;4813911;29;20188;-89
2020/12/28 11:45:17;;;;;;;4.77;2.47;;;4.90;99.90;;;;;;4825457;29;21472;-89
2020/12/28 11:47:42;;;;;;;3.20;2.37;;;5.00;99.90;;;;;;4840633;29;20306;-88
2020/12/28 11:50:08;;;;;;;11.30;4.90;;;5.10;99.90;;;;;;4857346;29;20719;-87
2020/12/28 11:52:34;;;;;;;15.37;4.10;;;5.20;99.90;;;;;;4842414;29;20224;-87
2020/12/28 11:55:01;;;;;;;3.93;3.27;;;5.30;99.90;;;;;;4827276;29;20930;-88
2020/12/28 11:57:26;;;;;;;3.67;2.07;;;5.30;99.90;;;;;;4844025;29;20632;-87
2020/12/28 11:59:52;;;;;;;3.67;3.37;;;5.30;99.90;;;;;;4811052;29;20236;-87
2020/12/28 12:02:21;;;;;;;3.57;2.63;;;5.30;99.90;;;;;;4826539;29;20220;-88
2020/12/28 12:04:51;;;;;;;3.20;2.93;;;5.10;99.90;;;;;;4855050;29;20231;-92
2020/12/28 12:07:26;;;;;;;6.50;2.83;;;5.00;99.90;;;;;;4838786;29;20224;-90
2020/12/28 12:09:52;;;;;;;2.67;1.90;;;5.20;99.90;;;;;;4827797;29;20196;-89
2020/12/28 12:12:19;;;;;;;11.97;3.93;;;5.20;99.90;;;;;;4843722;29;20203;-91
2020/12/28 12:14:45;;;;;;;3.77;2.07;;;5.20;99.90;;;;;;4840000;29;20339;-91
2020/12/28 12:17:11;;;;;;;4.37;2.67;;;5.20;99.90;;;;;;4856608;29;20315;-90
2020/12/28 12:19:37;;;;;;;3.50;3.20;;;5.30;99.90;;;;;;4839442;29;20224;-90
2020/12/28 12:22:03;;;;;;;3.93;2.87;;;5.30;99.90;;;;;;4831044;29;21134;-90
2020/12/28 12:24:29;;;;;;;3.03;2.30;;;5.20;99.90;;;;;;4821827;29;20211;-87
2020/12/28 12:26:55;;;;;;;5.43;2.50;;;5.20;99.90;;;;;;4835568;29;20225;-90
2020/12/28 12:29:21;;;;;;;3.47;3.00;;;5.20;99.90;;;;;;4838779;29;20222;-90
2020/12/28 12:31:51;;;;;;;2.43;2.27;;;5.20;99.90;;;;;;4837533;29;20231;-91
2020/12/28 12:34:17;;;;;;;4.13;3.70;;;5.10;99.90;;;;;;4836875;29;20228;-90
2020/12/28 12:36:43;;;;;;;6.47;3.47;;;5.10;99.90;;;;;;4823047;29;20224;-87
2020/12/28 12:39:09;;;;;;;4.10;3.17;;;5.10;99.90;;;;;;4810093;29;21230;-87
2020/12/28 12:41:35;;;;;;;5.50;2.50;;;5.00;99.90;;;;;;4838337;29;20236;-87
2020/12/28 12:44:00;;;;;;;3.67;3.37;;;5.00;99.90;;;;;;4826880;29;20234;-88
2020/12/28 12:46:26;;;;;;;2.60;2.40;;;5.00;99.90;;;;;;4809927;29;20232;-89
2020/12/28 12:48:52;;;;;;;2.40;2.20;;;5.10;99.90;;;;;;4824409;29;20679;-88
2020/12/28 12:51:18;;;;;;;5.03;2.80;;;5.30;99.90;;;;;;4812317;29;20513;-91
2020/12/28 12:53:44;;;;;;;3.33;2.70;;;5.60;99.90;;;;;;4823998;29;20307;-88
2020/12/28 12:56:10;;;;;;;1.80;1.53;;;5.60;99.90;;;;;;4840484;29;20240;-89
2020/12/28 12:58:37;;;;;;;5.17;2.90;;;5.50;99.90;;;;;;4836034;29;20259;-91